sensor_id;sensor_type;location;lat;lon;timestamp;temperature;humidity
19813;DHT22;10066;48.108;11.448;2024-01-15T00:00:23;-0.70;99.90
19813;DHT22;10066;48.108;11.448;2024-01-15T00:02:50;-0.60;99.90
19813;DHT22;10066;48.108;11.448;2024-01-15T00:05:17;-0.60;99.90
19813;DHT22;10066;48.108;11.448;2024-01-15T00:07:44;-0.50;99.90
19813;DHT22;10066;48.108;11.448;2024-01-15T00:10:11;-0.50;99.90
19813;DHT22;10066;48.108;11.448;2024-01-15T00:12:38;-0.50;99.90
19813;DHT22;10066;48.108;11.448;2024-01-15T00:15:08;-0.40;99.90
19813;DHT22;10066;48.108;11.448;2024-01-15T00:17:35;-0.40;99.90
19813;DHT22;10066;48.108;11.448;2024-01-15T00:20:03;-0.40;99.90
19813;DHT22;10066;48.108;11.448;2024-01-15T00:22:30;-0.40;99.90
19813;DHT22;10066;48.108;11.448;2024-01-15T00:24:57;-0.30;99.90
19813;DHT22;10066;48.108;11.448;2024-01-15T00:27:24;-0.30;99.90
19813;DHT22;10066;48.108;11.448;2024-01-15T00:29:51;-0.20;99.90
19813;DHT22;10066;48.108;11.448;2024-01-15T00:32:21;-0.20;99.90
19813;DHT22;10066;48.108;11.448;2024-01-15T00:34:48;-0.20;99.90
19813;DHT22;10066;48.108;11.448;2024-01-15T00:37:16;-0.20;99.90
19813;DHT22;10066;48.108;11.448;2024-01-15T00:39:43;-0.10;99.90
19813;DHT22;10066;48.108;11.448;2024-01-15T00:42:10;0.00;99.90
19813;DHT22;10066;48.108;11.448;2024-01-15T00:44:38;0.10;99.90
19813;DHT22;10066;48.108;11.448;2024-01-15T00:47:07;0.20;99.90
19813;DHT22;10066;48.108;11.448;2024-01-15T00:49:36;0.30;99.90
19813;DHT22;10066;48.108;11.448;2024-01-15T00:52:03;0.40;99.90
19813;DHT22;10066;48.108;11.448;2024-01-15T00:54:31;0.40;99.90
19813;DHT22;10066;48.108;11.448;2024-01-15T00:56:58;0.40;99.90
19813;DHT22;10066;48.108;11.448;2024-01-15T00:59:24;0.50;99.90
19813;DHT22;10066;48.108;11.448;2024-01-15T01:01:51;0.50;99.90
19813;DHT22;10066;48.108;11.448;2024-01-15T01:04:18;0.50;99.90
19813;DHT22;10066;48.108;11.448;2024-01-15T01:06:47;0.50;99.90
19813;DHT22;10066;48.108;11.448;2024-01-15T01:09:14;0.50;99.90
19813;DHT22;10066;48.108;11.448;2024-01-15T01:11:41;0.40;99.90
19813;DHT22;10066;48.108;11.448;2024-01-15T01:14:08;0.30;99.90
19813;DHT22;10066;48.108;11.448;2024-01-15T01:16:35;0.20;99.90
19813;DHT22;10066;48.108;11.448;2024-01-15T01:19:04;0.00;99.90
19813;DHT22;10066;48.108;11.448;2024-01-15T01:21:32;-0.10;99.90
19813;DHT22;10066;48.108;11.448;2024-01-15T01:24:01;-0.30;99.90
19813;DHT22;10066;48.108;11.448;2024-01-15T01:26:28;-0.40;99.90
19813;DHT22;10066;48.108;11.448;2024-01-15T01:28:55;-0.50;99.90
19813;DHT22;10066;48.108;11.448;2024-01-15T01:31:22;-0.60;99.90
19813;DHT22;10066;48.108;11.448;2024-01-15T01:33:50;-0.70;99.90
19813;DHT22;10066;48.108;11.448;2024-01-15T01:36:17;-0.80;99.90
19813;DHT22;10066;48.108;11.448;2024-01-15T01:38:44;-0.80;99.90
19813;DHT22;10066;48.108;11.448;2024-01-15T01:41:12;-0.90;99.90
19813;DHT22;10066;48.108;11.448;2024-01-15T01:43:40;-0.90;99.90
19813;DHT22;10066;48.108;11.448;2024-01-15T01:46:07;-1.00;99.90
19813;DHT22;10066;48.108;11.448;2024-01-15T01:48:35;-1.00;99.90
19813;DHT22;10066;48.108;11.448;2024-01-15T01:51:03;-1.00;99.90
19813;DHT22;10066;48.108;11.448;2024-01-15T01:53:32;-1.10;99.90
19813;DHT22;10066;48.108;11.448;2024-01-15T01:56:00;-1.10;99.90
19813;DHT22;10066;48.108;11.448;2024-01-15T01:58:29;-1.10;99.90
19813;DHT22;10066;48.108;11.448;2024-01-15T02:00:57;-1.20;99.90
19813;DHT22;10066;48.108;11.448;2024-01-15T02:03:26;-1.20;99.90
19813;DHT22;10066;48.108;11.448;2024-01-15T02:05:53;-1.20;99.90
19813;DHT22;10066;48.108;11.448;2024-01-15T02:08:21;-1.20;99.90
19813;DHT22;10066;48.108;11.448;2024-01-15T02:10:48;-1.30;99.90
19813;DHT22;10066;48.108;11.448;2024-01-15T02:13:16;-1.30;99.90
19813;DHT22;10066;48.108;11.448;2024-01-15T02:15:45;-1.40;99.90
19813;DHT22;10066;48.108;11.448;2024-01-15T02:18:12;-1.40;99.90
19813;DHT22;10066;48.108;11.448;2024-01-15T02:20:39;-1.40;99.90
19813;DHT22;10066;48.108;11.448;2024-01-15T02:23:12;-1.50;99.90
19813;DHT22;10066;48.108;11.448;2024-01-15T02:25:40;-1.50;99.90
19813;DHT22;10066;48.108;11.448;2024-01-15T02:28:10;-1.50;99.90
19813;DHT22;10066;48.108;11.448;2024-01-15T02:30:38;-1.50;99.90
19813;DHT22;10066;48.108;11.448;2024-01-15T02:33:06;-1.60;99.90
19813;DHT22;10066;48.108;11.448;2024-01-15T02:35:33;-1.60;99.90
19813;DHT22;10066;48.108;11.448;2024-01-15T02:38:02;-1.50;99.90
19813;DHT22;10066;48.108;11.448;2024-01-15T02:40:31;-1.50;99.90
19813;DHT22;10066;48.108;11.448;2024-01-15T02:42:58;-1.40;99.90
19813;DHT22;10066;48.108;11.448;2024-01-15T02:45:25;-1.30;99.90
19813;DHT22;10066;48.108;11.448;2024-01-15T02:47:52;-1.30;99.90
19813;DHT22;10066;48.108;11.448;2024-01-15T02:50:19;-1.30;99.90
19813;DHT22;10066;48.108;11.448;2024-01-15T02:52:47;-1.20;99.90
19813;DHT22;10066;48.108;11.448;2024-01-15T02:55:14;-1.20;99.90
19813;DHT22;10066;48.108;11.448;2024-01-15T02:57:42;-1.10;99.90
19813;DHT22;10066;48.108;11.448;2024-01-15T03:00:10;-1.10;99.90
19813;DHT22;10066;48.108;11.448;2024-01-15T03:02:38;-1.00;99.90
19813;DHT22;10066;48.108;11.448;2024-01-15T03:05:06;-1.00;99.90
19813;DHT22;10066;48.108;11.448;2024-01-15T03:07:33;-1.00;99.90
19813;DHT22;10066;48.108;11.448;2024-01-15T03:10:01;-0.90;99.90
19813;DHT22;10066;48.108;11.448;2024-01-15T03:12:28;-0.90;99.90
19813;DHT22;10066;48.108;11.448;2024-01-15T03:14:56;-0.90;99.90
19813;DHT22;10066;48.108;11.448;2024-01-15T03:17:23;-0.90;99.90
19813;DHT22;10066;48.108;11.448;2024-01-15T03:19:50;-0.90;99.90
19813;DHT22;10066;48.108;11.448;2024-01-15T03:22:17;-0.90;99.90
19813;DHT22;10066;48.108;11.448;2024-01-15T03:24:44;-0.80;99.90
19813;DHT22;10066;48.108;11.448;2024-01-15T03:27:11;-0.80;99.90
19813;DHT22;10066;48.108;11.448;2024-01-15T03:29:39;-0.80;99.90
19813;DHT22;10066;48.108;11.448;2024-01-15T03:32:08;-0.80;99.90
19813;DHT22;10066;48.108;11.448;2024-01-15T03:34:34;-0.80;99.90
19813;DHT22;10066;48.108;11.448;2024-01-15T03:37:01;-0.80;99.90
19813;DHT22;10066;48.108;11.448;2024-01-15T03:39:29;-0.80;99.90
19813;DHT22;10066;48.108;11.448;2024-01-15T03:41:56;-0.80;99.90
19813;DHT22;10066;48.108;11.448;2024-01-15T03:44:23;-0.80;99.90
19813;DHT22;10066;48.108;11.448;2024-01-15T03:46:50;-0.80;99.90
19813;DHT22;10066;48.108;11.448;2024-01-15T03:49:18;-0.80;99.90
19813;DHT22;10066;48.108;11.448;2024-01-15T03:51:45;-0.70;99.90
19813;DHT22;10066;48.108;11.448;2024-01-15T03:54:12;-0.70;99.90
19813;DHT22;10066;48.108;11.448;2024-01-15T03:56:39;-0.70;99.90
19813;DHT22;10066;48.108;11.448;2024-01-15T03:59:06;-0.70;99.90
19813;DHT22;10066;48.108;11.448;2024-01-15T04:01:33;-0.70;99.90
19813;DHT22;10066;48.108;11.448;2024-01-15T04:04:00;-0.70;99.90
19813;DHT22;10066;48.108;11.448;2024-01-15T04:06:29;-0.70;99.90
19813;DHT22;10066;48.108;11.448;2024-01-15T04:08:56;-0.70;99.90
19813;DHT22;10066;48.108;11.448;2024-01-15T04:11:23;-0.70;99.90
19813;DHT22;10066;48.108;11.448;2024-01-15T04:13:50;-0.70;99.90
19813;DHT22;10066;48.108;11.448;2024-01-15T04:16:17;-0.70;99.90
19813;DHT22;10066;48.108;11.448;2024-01-15T04:18:44;-0.70;99.90
19813;DHT22;10066;48.108;11.448;2024-01-15T04:21:11;-0.70;99.90
19813;DHT22;10066;48.108;11.448;2024-01-15T04:23:40;-0.70;99.90
19813;DHT22;10066;48.108;11.448;2024-01-15T04:26:07;-0.70;99.90
19813;DHT22;10066;48.108;11.448;2024-01-15T04:28:34;-0.70;99.90
19813;DHT22;10066;48.108;11.448;2024-01-15T04:31:01;-0.70;99.90
19813;DHT22;10066;48.108;11.448;2024-01-15T04:33:28;-0.70;99.90
19813;DHT22;10066;48.108;11.448;2024-01-15T04:35:55;-0.70;99.90
19813;DHT22;10066;48.108;11.448;2024-01-15T04:38:22;-0.70;99.90
19813;DHT22;10066;48.108;11.448;2024-01-15T04:40:50;-0.70;99.90
19813;DHT22;10066;48.108;11.448;2024-01-15T04:43:17;-0.70;99.90
19813;DHT22;10066;48.108;11.448;2024-01-15T04:45:44;-0.70;99.90
19813;DHT22;10066;48.108;11.448;2024-01-15T04:48:11;-0.70;99.90
19813;DHT22;10066;48.108;11.448;2024-01-15T04:50:38;-0.70;99.90
19813;DHT22;10066;48.108;11.448;2024-01-15T04:53:05;-0.70;99.90
19813;DHT22;10066;48.108;11.448;2024-01-15T04:55:32;-0.80;99.90
19813;DHT22;10066;48.108;11.448;2024-01-15T04:58:00;-0.80;99.90
19813;DHT22;10066;48.108;11.448;2024-01-15T05:00:27;-0.70;99.90
19813;DHT22;10066;48.108;11.448;2024-01-15T05:02:54;-0.80;99.90
19813;DHT22;10066;48.108;11.448;2024-01-15T05:05:22;-0.80;99.90
19813;DHT22;10066;48.108;11.448;2024-01-15T05:07:49;-0.80;99.90
19813;DHT22;10066;48.108;11.448;2024-01-15T05:10:16;-0.80;99.90
19813;DHT22;10066;48.108;11.448;2024-01-15T05:12:43;-0.80;99.90
19813;DHT22;10066;48.108;11.448;2024-01-15T05:15:11;-0.80;99.90
19813;DHT22;10066;48.108;11.448;2024-01-15T05:17:38;-0.80;99.90
19813;DHT22;10066;48.108;11.448;2024-01-15T05:20:06;-0.80;99.90
19813;DHT22;10066;48.108;11.448;2024-01-15T05:22:33;-0.80;99.90
19813;DHT22;10066;48.108;11.448;2024-01-15T05:25:00;-0.80;99.90
19813;DHT22;10066;48.108;11.448;2024-01-15T05:27:27;-0.80;99.90
19813;DHT22;10066;48.108;11.448;2024-01-15T05:29:54;-0.80;99.90
19813;DHT22;10066;48.108;11.448;2024-01-15T05:32:22;-0.80;99.90
19813;DHT22;10066;48.108;11.448;2024-01-15T05:34:49;-0.80;99.90
19813;DHT22;10066;48.108;11.448;2024-01-15T05:37:16;-0.80;99.90
19813;DHT22;10066;48.108;11.448;2024-01-15T05:39:43;-0.90;99.90
19813;DHT22;10066;48.108;11.448;2024-01-15T05:42:10;-0.80;99.90
19813;DHT22;10066;48.108;11.448;2024-01-15T05:44:37;-0.80;99.90
19813;DHT22;10066;48.108;11.448;2024-01-15T05:47:04;-0.80;99.90
19813;DHT22;10066;48.108;11.448;2024-01-15T05:49:33;-0.80;99.90
19813;DHT22;10066;48.108;11.448;2024-01-15T05:52:00;-0.80;99.90
19813;DHT22;10066;48.108;11.448;2024-01-15T05:54:27;-0.80;99.90
19813;DHT22;10066;48.108;11.448;2024-01-15T05:56:53;-0.80;99.90
19813;DHT22;10066;48.108;11.448;2024-01-15T05:59:20;-0.80;99.90
19813;DHT22;10066;48.108;11.448;2024-01-15T06:01:47;-0.80;99.90
19813;DHT22;10066;48.108;11.448;2024-01-15T06:04:14;-0.80;99.90
19813;DHT22;10066;48.108;11.448;2024-01-15T06:06:43;-0.80;99.90
19813;DHT22;10066;48.108;11.448;2024-01-15T06:09:10;-0.80;99.90
19813;DHT22;10066;48.108;11.448;2024-01-15T06:11:36;-0.80;99.90
19813;DHT22;10066;48.108;11.448;2024-01-15T06:14:03;-0.80;99.90
19813;DHT22;10066;48.108;11.448;2024-01-15T06:16:30;-0.80;99.90
19813;DHT22;10066;48.108;11.448;2024-01-15T06:18:57;-0.80;99.90
19813;DHT22;10066;48.108;11.448;2024-01-15T06:21:24;-0.80;99.90
19813;DHT22;10066;48.108;11.448;2024-01-15T06:23:53;-0.80;99.90
19813;DHT22;10066;48.108;11.448;2024-01-15T06:26:22;-0.80;99.90
19813;DHT22;10066;48.108;11.448;2024-01-15T06:28:49;-0.80;99.90
19813;DHT22;10066;48.108;11.448;2024-01-15T06:31:16;-0.80;99.90
19813;DHT22;10066;48.108;11.448;2024-01-15T06:33:43;-0.80;99.90
19813;DHT22;10066;48.108;11.448;2024-01-15T06:36:12;-0.80;99.90
19813;DHT22;10066;48.108;11.448;2024-01-15T06:38:39;-0.80;99.90
19813;DHT22;10066;48.108;11.448;2024-01-15T06:41:08;-0.70;99.90
19813;DHT22;10066;48.108;11.448;2024-01-15T06:43:35;-0.70;99.90
19813;DHT22;10066;48.108;11.448;2024-01-15T06:46:02;-0.70;99.90
19813;DHT22;10066;48.108;11.448;2024-01-15T06:48:29;-0.70;99.90
19813;DHT22;10066;48.108;11.448;2024-01-15T06:50:56;-0.70;99.90
19813;DHT22;10066;48.108;11.448;2024-01-15T06:53:23;-0.70;99.90
19813;DHT22;10066;48.108;11.448;2024-01-15T06:55:50;-0.70;99.90
19813;DHT22;10066;48.108;11.448;2024-01-15T06:58:19;-0.70;99.90
19813;DHT22;10066;48.108;11.448;2024-01-15T07:00:46;-0.70;99.90
19813;DHT22;10066;48.108;11.448;2024-01-15T07:03:13;-0.70;99.90
19813;DHT22;10066;48.108;11.448;2024-01-15T07:05:40;-0.60;99.90
19813;DHT22;10066;48.108;11.448;2024-01-15T07:08:07;-0.60;99.90
19813;DHT22;10066;48.108;11.448;2024-01-15T07:10:34;-0.60;99.90
19813;DHT22;10066;48.108;11.448;2024-01-15T07:13:01;-0.60;99.90
19813;DHT22;10066;48.108;11.448;2024-01-15T07:15:29;-0.60;99.90
19813;DHT22;10066;48.108;11.448;2024-01-15T07:17:56;-0.60;99.90
19813;DHT22;10066;48.108;11.448;2024-01-15T07:20:23;-0.50;99.90
19813;DHT22;10066;48.108;11.448;2024-01-15T07:22:50;-0.50;99.90
19813;DHT22;10066;48.108;11.448;2024-01-15T07:25:17;-0.50;99.90
19813;DHT22;10066;48.108;11.448;2024-01-15T07:27:44;-0.50;99.90
19813;DHT22;10066;48.108;11.448;2024-01-15T07:30:13;-0.50;99.90
19813;DHT22;10066;48.108;11.448;2024-01-15T07:32:41;-0.50;99.90
19813;DHT22;10066;48.108;11.448;2024-01-15T07:35:08;-0.50;99.90
19813;DHT22;10066;48.108;11.448;2024-01-15T07:37:35;-0.40;99.90
19813;DHT22;10066;48.108;11.448;2024-01-15T07:40:03;-0.40;99.90
19813;DHT22;10066;48.108;11.448;2024-01-15T07:42:32;-0.40;99.90
19813;DHT22;10066;48.108;11.448;2024-01-15T07:44:59;-0.40;99.90
19813;DHT22;10066;48.108;11.448;2024-01-15T07:47:26;-0.30;99.90
19813;DHT22;10066;48.108;11.448;2024-01-15T07:49:55;-0.30;99.90
19813;DHT22;10066;48.108;11.448;2024-01-15T07:52:22;-0.30;99.90
19813;DHT22;10066;48.108;11.448;2024-01-15T07:54:50;-0.20;99.90
19813;DHT22;10066;48.108;11.448;2024-01-15T07:57:17;-0.20;99.90
19813;DHT22;10066;48.108;11.448;2024-01-15T07:59:44;-0.20;99.90
19813;DHT22;10066;48.108;11.448;2024-01-15T08:02:11;-0.20;99.90
19813;DHT22;10066;48.108;11.448;2024-01-15T08:04:38;-0.20;99.90
19813;DHT22;10066;48.108;11.448;2024-01-15T08:07:07;-0.10;99.90
19813;DHT22;10066;48.108;11.448;2024-01-15T08:12:00;-0.10;99.90
19813;DHT22;10066;48.108;11.448;2024-01-15T08:14:27;0.00;99.90
19813;DHT22;10066;48.108;11.448;2024-01-15T08:16:55;-0.10;99.90
19813;DHT22;10066;48.108;11.448;2024-01-15T08:19:22;0.00;99.90
19813;DHT22;10066;48.108;11.448;2024-01-15T08:21:49;0.00;99.90
19813;DHT22;10066;48.108;11.448;2024-01-15T08:24:17;0.00;99.90
19813;DHT22;10066;48.108;11.448;2024-01-15T08:26:44;0.00;99.90
19813;DHT22;10066;48.108;11.448;2024-01-15T08:29:11;0.00;99.90
19813;DHT22;10066;48.108;11.448;2024-01-15T08:31:38;0.00;99.90
19813;DHT22;10066;48.108;11.448;2024-01-15T08:34:05;0.00;99.90
19813;DHT22;10066;48.108;11.448;2024-01-15T08:36:33;0.00;99.90
19813;DHT22;10066;48.108;11.448;2024-01-15T08:39:02;0.00;99.90
19813;DHT22;10066;48.108;11.448;2024-01-15T08:41:32;0.00;99.90
19813;DHT22;10066;48.108;11.448;2024-01-15T08:43:59;0.00;99.90
19813;DHT22;10066;48.108;11.448;2024-01-15T08:46:26;0.00;99.90
19813;DHT22;10066;48.108;11.448;2024-01-15T08:48:53;0.10;99.90
19813;DHT22;10066;48.108;11.448;2024-01-15T08:51:20;0.00;99.90
19813;DHT22;10066;48.108;11.448;2024-01-15T08:53:47;0.00;99.90
19813;DHT22;10066;48.108;11.448;2024-01-15T08:56:14;0.10;99.90
19813;DHT22;10066;48.108;11.448;2024-01-15T08:58:42;0.00;99.90
19813;DHT22;10066;48.108;11.448;2024-01-15T09:01:11;0.10;99.90
19813;DHT22;10066;48.108;11.448;2024-01-15T09:03:39;0.10;99.90
19813;DHT22;10066;48.108;11.448;2024-01-15T09:06:07;0.10;99.90
19813;DHT22;10066;48.108;11.448;2024-01-15T09:08:35;0.10;99.90
19813;DHT22;10066;48.108;11.448;2024-01-15T09:11:02;0.20;99.90
19813;DHT22;10066;48.108;11.448;2024-01-15T09:13:29;0.20;99.90
19813;DHT22;10066;48.108;11.448;2024-01-15T09:15:58;0.20;99.90
19813;DHT22;10066;48.108;11.448;2024-01-15T09:18:26;0.20;99.90
19813;DHT22;10066;48.108;11.448;2024-01-15T09:20:53;0.30;99.90
19813;DHT22;10066;48.108;11.448;2024-01-15T09:23:20;0.30;99.90
19813;DHT22;10066;48.108;11.448;2024-01-15T09:25:47;0.30;99.90
19813;DHT22;10066;48.108;11.448;2024-01-15T09:28:15;0.40;99.90
19813;DHT22;10066;48.108;11.448;2024-01-15T09:30:42;0.40;99.90
19813;DHT22;10066;48.108;11.448;2024-01-15T09:33:11;0.40;99.90
19813;DHT22;10066;48.108;11.448;2024-01-15T09:35:39;0.40;99.90
19813;DHT22;10066;48.108;11.448;2024-01-15T09:38:06;0.40;99.90
19813;DHT22;10066;48.108;11.448;2024-01-15T09:40:33;0.50;99.90
19813;DHT22;10066;48.108;11.448;2024-01-15T09:43:01;0.40;99.90
19813;DHT22;10066;48.108;11.448;2024-01-15T09:45:28;0.50;99.90
19813;DHT22;10066;48.108;11.448;2024-01-15T09:47:56;0.50;99.90
19813;DHT22;10066;48.108;11.448;2024-01-15T09:50:25;0.60;99.90
19813;DHT22;10066;48.108;11.448;2024-01-15T09:52:52;0.60;99.90
19813;DHT22;10066;48.108;11.448;2024-01-15T09:55:19;0.70;99.90
19813;DHT22;10066;48.108;11.448;2024-01-15T09:57:46;0.70;99.90
19813;DHT22;10066;48.108;11.448;2024-01-15T10:00:17;0.70;99.90
19813;DHT22;10066;48.108;11.448;2024-01-15T10:02:45;0.70;99.90
19813;DHT22;10066;48.108;11.448;2024-01-15T10:05:12;0.80;99.90
19813;DHT22;10066;48.108;11.448;2024-01-15T10:07:40;0.80;99.90
19813;DHT22;10066;48.108;11.448;2024-01-15T10:10:08;0.90;99.90
19813;DHT22;10066;48.108;11.448;2024-01-15T10:12:37;0.90;99.90
19813;DHT22;10066;48.108;11.448;2024-01-15T10:15:05;0.90;99.90
19813;DHT22;10066;48.108;11.448;2024-01-15T10:17:32;0.90;99.90
19813;DHT22;10066;48.108;11.448;2024-01-15T10:19:59;1.00;99.90
19813;DHT22;10066;48.108;11.448;2024-01-15T10:22:26;1.00;99.90
19813;DHT22;10066;48.108;11.448;2024-01-15T10:24:56;1.10;99.90
19813;DHT22;10066;48.108;11.448;2024-01-15T10:27:24;1.10;99.90
19813;DHT22;10066;48.108;11.448;2024-01-15T10:29:51;1.10;99.90
19813;DHT22;10066;48.108;11.448;2024-01-15T10:32:19;1.10;99.90
19813;DHT22;10066;48.108;11.448;2024-01-15T10:34:52;1.20;99.90
19813;DHT22;10066;48.108;11.448;2024-01-15T10:37:19;1.20;99.90
19813;DHT22;10066;48.108;11.448;2024-01-15T10:39:47;1.20;99.90
19813;DHT22;10066;48.108;11.448;2024-01-15T10:42:15;1.30;99.90
19813;DHT22;10066;48.108;11.448;2024-01-15T10:44:43;1.20;99.90
19813;DHT22;10066;48.108;11.448;2024-01-15T10:47:12;1.30;99.90
19813;DHT22;10066;48.108;11.448;2024-01-15T10:49:39;1.20;99.90
19813;DHT22;10066;48.108;11.448;2024-01-15T10:52:07;1.30;99.90
19813;DHT22;10066;48.108;11.448;2024-01-15T10:54:34;1.30;99.90
19813;DHT22;10066;48.108;11.448;2024-01-15T10:59:32;1.30;99.90
19813;DHT22;10066;48.108;11.448;2024-01-15T11:02:00;1.30;99.90
19813;DHT22;10066;48.108;11.448;2024-01-15T11:04:27;1.40;99.90
19813;DHT22;10066;48.108;11.448;2024-01-15T11:06:56;1.30;99.90
19813;DHT22;10066;48.108;11.448;2024-01-15T11:09:23;1.30;99.90
19813;DHT22;10066;48.108;11.448;2024-01-15T11:11:53;1.30;99.90
19813;DHT22;10066;48.108;11.448;2024-01-15T11:14:39;1.30;99.90
19813;DHT22;10066;48.108;11.448;2024-01-15T11:17:08;1.30;99.90
19813;DHT22;10066;48.108;11.448;2024-01-15T11:19:36;1.30;99.90
19813;DHT22;10066;48.108;11.448;2024-01-15T11:22:07;1.30;99.90
19813;DHT22;10066;48.108;11.448;2024-01-15T11:24:35;1.40;99.90
19813;DHT22;10066;48.108;11.448;2024-01-15T11:27:03;1.50;99.90
19813;DHT22;10066;48.108;11.448;2024-01-15T11:29:32;1.60;99.90
19813;DHT22;10066;48.108;11.448;2024-01-15T11:32:03;1.70;99.90
19813;DHT22;10066;48.108;11.448;2024-01-15T11:34:51;1.70;99.90
19813;DHT22;10066;48.108;11.448;2024-01-15T11:37:18;1.70;99.90
19813;DHT22;10066;48.108;11.448;2024-01-15T11:39:45;1.60;99.90
19813;DHT22;10066;48.108;11.448;2024-01-15T11:42:14;1.70;99.90
19813;DHT22;10066;48.108;11.448;2024-01-15T11:44:41;1.60;99.90
19813;DHT22;10066;48.108;11.448;2024-01-15T11:47:11;1.60;99.90
19813;DHT22;10066;48.108;11.448;2024-01-15T11:49:58;1.40;99.90
19813;DHT22;10066;48.108;11.448;2024-01-15T11:52:26;1.20;99.90
19813;DHT22;10066;48.108;11.448;2024-01-15T11:55:01;1.10;99.90
19813;DHT22;10066;48.108;11.448;2024-01-15T11:57:40;1.00;99.90
19813;DHT22;10066;48.108;11.448;2024-01-15T12:00:09;0.90;99.90
19813;DHT22;10066;48.108;11.448;2024-01-15T12:02:38;0.70;99.90
19813;DHT22;10066;48.108;11.448;2024-01-15T12:05:05;0.60;99.90
19813;DHT22;10066;48.108;11.448;2024-01-15T12:07:33;0.50;99.90
19813;DHT22;10066;48.108;11.448;2024-01-15T12:10:00;0.50;99.90
19813;DHT22;10066;48.108;11.448;2024-01-15T12:12:35;0.40;99.90
19813;DHT22;10066;48.108;11.448;2024-01-15T12:15:04;0.30;99.90
19813;DHT22;10066;48.108;11.448;2024-01-15T12:17:32;0.30;99.90
19813;DHT22;10066;48.108;11.448;2024-01-15T12:20:00;0.30;99.90
19813;DHT22;10066;48.108;11.448;2024-01-15T12:22:28;0.30;99.90
19813;DHT22;10066;48.108;11.448;2024-01-15T12:24:55;0.30;99.90
19813;DHT22;10066;48.108;11.448;2024-01-15T12:27:23;0.40;99.90
19813;DHT22;10066;48.108;11.448;2024-01-15T12:29:50;0.50;99.90
19813;DHT22;10066;48.108;11.448;2024-01-15T12:32:19;0.60;99.90
19813;DHT22;10066;48.108;11.448;2024-01-15T12:34:49;0.70;99.90
19813;DHT22;10066;48.108;11.448;2024-01-15T12:37:19;0.70;99.90
19813;DHT22;10066;48.108;11.448;2024-01-15T12:39:49;0.70;99.90
19813;DHT22;10066;48.108;11.448;2024-01-15T12:42:21;0.70;99.90
19813;DHT22;10066;48.108;11.448;2024-01-15T12:44:48;0.70;99.90
19813;DHT22;10066;48.108;11.448;2024-01-15T12:47:15;0.60;99.90
19813;DHT22;10066;48.108;11.448;2024-01-15T12:49:46;0.60;99.90
19813;DHT22;10066;48.108;11.448;2024-01-15T12:52:15;0.60;99.90
19813;DHT22;10066;48.108;11.448;2024-01-15T12:54:44;0.60;99.90
19813;DHT22;10066;48.108;11.448;2024-01-15T12:57:11;0.60;99.90
19813;DHT22;10066;48.108;11.448;2024-01-15T12:59:38;0.70;99.90
19813;DHT22;10066;48.108;11.448;2024-01-15T13:02:06;0.70;99.90
19813;DHT22;10066;48.108;11.448;2024-01-15T13:04:33;0.90;99.90
19813;DHT22;10066;48.108;11.448;2024-01-15T13:07:00;1.10;99.90
19813;DHT22;10066;48.108;11.448;2024-01-15T13:09:27;1.30;99.90
19813;DHT22;10066;48.108;11.448;2024-01-15T13:11:56;1.50;99.90
19813;DHT22;10066;48.108;11.448;2024-01-15T13:14:23;1.80;99.90
19813;DHT22;10066;48.108;11.448;2024-01-15T13:16:50;2.00;99.90
19813;DHT22;10066;48.108;11.448;2024-01-15T13:19:18;2.20;99.90
19813;DHT22;10066;48.108;11.448;2024-01-15T13:21:45;2.30;99.90
19813;DHT22;10066;48.108;11.448;2024-01-15T13:24:12;2.40;99.90
19813;DHT22;10066;48.108;11.448;2024-01-15T13:26:39;2.40;99.90
19813;DHT22;10066;48.108;11.448;2024-01-15T13:29:08;2.40;99.90
19813;DHT22;10066;48.108;11.448;2024-01-15T13:31:35;2.50;99.90
19813;DHT22;10066;48.108;11.448;2024-01-15T13:34:02;2.50;99.90
19813;DHT22;10066;48.108;11.448;2024-01-15T13:36:29;2.40;99.90
19813;DHT22;10066;48.108;11.448;2024-01-15T13:38:56;2.40;99.90
19813;DHT22;10066;48.108;11.448;2024-01-15T13:41:24;2.40;99.90
19813;DHT22;10066;48.108;11.448;2024-01-15T13:43:54;2.40;99.90
19813;DHT22;10066;48.108;11.448;2024-01-15T13:46:24;2.30;99.90
19813;DHT22;10066;48.108;11.448;2024-01-15T13:48:52;2.30;99.90
19813;DHT22;10066;48.108;11.448;2024-01-15T13:51:19;2.40;99.90
19813;DHT22;10066;48.108;11.448;2024-01-15T13:53:47;2.30;99.90
19813;DHT22;10066;48.108;11.448;2024-01-15T13:56:14;2.30;99.90
19813;DHT22;10066;48.108;11.448;2024-01-15T13:58:41;2.30;99.90
19813;DHT22;10066;48.108;11.448;2024-01-15T14:01:08;2.30;99.90
19813;DHT22;10066;48.108;11.448;2024-01-15T14:03:37;2.20;99.90
19813;DHT22;10066;48.108;11.448;2024-01-15T14:06:04;2.20;99.90
19813;DHT22;10066;48.108;11.448;2024-01-15T14:08:34;2.20;99.90
19813;DHT22;10066;48.108;11.448;2024-01-15T14:11:02;2.20;99.90
19813;DHT22;10066;48.108;11.448;2024-01-15T14:13:29;2.20;99.90
19813;DHT22;10066;48.108;11.448;2024-01-15T14:15:56;2.10;99.90
19813;DHT22;10066;48.108;11.448;2024-01-15T14:18:23;2.10;99.90
19813;DHT22;10066;48.108;11.448;2024-01-15T14:20:51;2.10;99.90
19813;DHT22;10066;48.108;11.448;2024-01-15T14:23:19;2.00;99.90
19813;DHT22;10066;48.108;11.448;2024-01-15T14:25:46;2.00;99.90
19813;DHT22;10066;48.108;11.448;2024-01-15T14:28:13;2.00;99.90
19813;DHT22;10066;48.108;11.448;2024-01-15T14:30:40;1.90;99.90
19813;DHT22;10066;48.108;11.448;2024-01-15T14:33:07;1.90;99.90
19813;DHT22;10066;48.108;11.448;2024-01-15T14:35:34;1.80;99.90
19813;DHT22;10066;48.108;11.448;2024-01-15T14:38:03;1.80;99.90
19813;DHT22;10066;48.108;11.448;2024-01-15T14:40:30;1.80;99.90
19813;DHT22;10066;48.108;11.448;2024-01-15T14:42:58;1.70;99.90
19813;DHT22;10066;48.108;11.448;2024-01-15T14:45:25;1.70;99.90
19813;DHT22;10066;48.108;11.448;2024-01-15T14:47:52;1.70;99.90
19813;DHT22;10066;48.108;11.448;2024-01-15T14:50:19;1.60;99.90
19813;DHT22;10066;48.108;11.448;2024-01-15T14:52:46;1.60;99.90
19813;DHT22;10066;48.108;11.448;2024-01-15T14:55:15;1.50;99.90
19813;DHT22;10066;48.108;11.448;2024-01-15T14:57:42;1.40;99.90
19813;DHT22;10066;48.108;11.448;2024-01-15T15:00:10;1.40;99.90
19813;DHT22;10066;48.108;11.448;2024-01-15T15:02:39;1.30;99.90
19813;DHT22;10066;48.108;11.448;2024-01-15T15:05:06;1.30;99.90
19813;DHT22;10066;48.108;11.448;2024-01-15T15:07:34;1.30;99.90
19813;DHT22;10066;48.108;11.448;2024-01-15T15:10:05;1.30;99.90
19813;DHT22;10066;48.108;11.448;2024-01-15T15:12:34;1.30;99.90
19813;DHT22;10066;48.108;11.448;2024-01-15T15:15:01;1.20;99.90
19813;DHT22;10066;48.108;11.448;2024-01-15T15:17:28;1.30;99.90
19813;DHT22;10066;48.108;11.448;2024-01-15T15:19:55;1.20;99.90
19813;DHT22;10066;48.108;11.448;2024-01-15T15:22:22;1.20;99.90
19813;DHT22;10066;48.108;11.448;2024-01-15T15:24:49;1.20;99.90
19813;DHT22;10066;48.108;11.448;2024-01-15T15:27:16;1.20;99.90
19813;DHT22;10066;48.108;11.448;2024-01-15T15:29:45;1.20;99.90